Time;durP1;ratioP1;P1;durP2;ratioP2;P2;SDS_P1;SDS_P2;PMS_P1;PMS_P2;Temp;Humidity;BMP_temperature;BMP_pressure;BME280_temperature;BME280_humidity;BME280_pressure;Samples;Min_cycle;Max_cycle;Signal;HPM_P1;HPM_P2
2023/07/24 00:01:54;;;;;;;15.25;4.28;;;24.60;58.30;;;;;;6137623;23;20056;-89
2023/07/24 00:04:21;;;;;;;11.35;3.53;;;24.60;57.90;;;;;;6137246;23;20077;-89
2023/07/24 00:06:48;;;;;;;10.23;3.20;;;24.60;58.00;;;;;;6137611;23;20325;-89
2023/07/24 00:09:15;;;;;;;10.97;3.07;;;24.50;58.40;;;;;;6137406;23;20021;-89
2023/07/24 00:11:42;;;;;;;8.30;3.35;;;24.50;58.70;;;;;;6137351;23;20017;-89
2023/07/24 00:14:09;;;;;;;8.32;3.05;;;24.40;58.80;;;;;;6161734;23;20052;-89
2023/07/24 00:16:36;;;;;;;9.07;2.70;;;24.30;59.10;;;;;;6161436;23;20021;-89
2023/07/24 00:19:03;;;;;;;8.27;3.17;;;24.30;59.20;;;;;;6136958;23;20021;-89
2023/07/24 00:21:31;;;;;;;8.67;3.00;;;24.20;59.20;;;;;;6137053;23;20028;-90
2023/07/24 00:23:58;;;;;;;8.63;2.90;;;24.20;59.20;;;;;;6136982;23;20031;-89
2023/07/24 00:26:25;;;;;;;8.13;2.83;;;24.20;59.90;;;;;;6137324;23;20031;-89
2023/07/24 00:28:52;;;;;;;6.50;2.35;;;24.10;59.50;;;;;;6136943;23;20076;-89
2023/07/24 00:31:20;;;;;;;6.88;2.45;;;24.10;59.20;;;;;;6137078;23;20036;-89
2023/07/24 00:33:47;;;;;;;8.83;2.83;;;24.00;59.60;;;;;;6137089;23;20108;-89
2023/07/24 00:36:14;;;;;;;7.57;2.95;;;24.00;59.40;;;;;;6137187;23;20021;-89
2023/07/24 00:38:41;;;;;;;7.15;2.80;;;24.00;59.50;;;;;;6137184;23;20136;-89
2023/07/24 00:41:08;;;;;;;8.02;2.90;;;23.90;59.50;;;;;;6137060;23;20024;-89
2023/07/24 00:43:35;;;;;;;7.25;2.65;;;23.90;59.70;;;;;;6137190;23;20032;-89
2023/07/24 00:46:02;;;;;;;7.60;3.07;;;23.80;59.80;;;;;;6136927;23;20025;-89
2023/07/24 00:48:29;;;;;;;8.32;2.75;;;23.90;59.70;;;;;;6136731;23;20072;-89
2023/07/24 00:50:57;;;;;;;7.97;2.85;;;23.90;59.90;;;;;;6160997;23;20458;-89
2023/07/24 00:53:24;;;;;;;8.98;3.08;;;23.90;59.60;;;;;;6161010;23;20108;-88
2023/07/24 00:55:51;;;;;;;7.50;2.85;;;23.90;59.80;;;;;;6161027;23;20025;-88
2023/07/24 00:58:19;;;;;;;7.07;2.60;;;23.90;60.10;;;;;;6131725;23;20040;-89
2023/07/24 01:00:46;;;;;;;8.65;2.85;;;23.80;60.40;;;;;;6131987;23;20384;-89
2023/07/24 01:03:14;;;;;;;9.02;3.60;;;23.80;60.20;;;;;;6156150;23;20018;-89
2023/07/24 01:05:41;;;;;;;7.68;3.70;;;23.80;60.50;;;;;;6156516;23;20024;-89
2023/07/24 01:08:08;;;;;;;8.52;4.10;;;23.70;60.70;;;;;;6131659;23;20048;-88
2023/07/24 01:10:35;;;;;;;6.97;3.30;;;23.80;61.00;;;;;;6131803;23;20380;-89
2023/07/24 01:13:07;;;;;;;8.23;3.55;;;23.80;60.80;;;;;;6131573;23;20017;-89
2023/07/24 01:15:41;;;;;;;8.25;3.78;;;23.70;60.80;;;;;;6156328;23;20041;-89
2023/07/24 01:18:16;;;;;;;8.65;3.83;;;23.70;61.10;;;;;;6131723;23;20108;-89
2023/07/24 01:20:56;;;;;;;8.82;3.85;;;23.70;61.30;;;;;;6155838;23;20017;-89
2023/07/24 01:23:52;;;;;;;8.20;3.73;;;23.70;61.60;;;;;;6155928;23;20025;-89
2023/07/24 01:26:21;;;;;;;7.72;3.70;;;23.70;61.70;;;;;;6131925;23;20405;-89
2023/07/24 01:28:50;;;;;;;9.43;3.92;;;23.70;61.70;;;;;;6155925;23;20025;-89
2023/07/24 01:31:17;;;;;;;7.70;3.55;;;23.70;62.20;;;;;;6155886;23;20021;-89
2023/07/24 01:33:45;;;;;;;7.60;3.50;;;23.60;62.50;;;;;;6131832;23;20029;-88
2023/07/24 01:36:19;;;;;;;6.93;3.20;;;23.60;62.60;;;;;;6132384;23;20028;-88
2023/07/24 01:38:48;;;;;;;9.95;3.80;;;23.60;62.80;;;;;;6131684;23;20460;-89
2023/07/24 01:41:15;;;;;;;9.93;4.13;;;23.60;62.90;;;;;;6156036;23;20025;-89
2023/07/24 01:43:43;;;;;;;10.70;4.40;;;23.60;63.40;;;;;;6156218;23;20052;-89
2023/07/24 01:46:10;;;;;;;9.52;4.28;;;23.60;63.90;;;;;;6155957;23;20106;-89
2023/07/24 01:48:37;;;;;;;10.67;3.90;;;23.50;63.80;;;;;;6131238;23;20185;-89
2023/07/24 01:51:04;;;;;;;11.88;4.82;;;23.50;63.90;;;;;;6131778;23;20021;-89
2023/07/24 01:53:31;;;;;;;11.50;4.47;;;23.60;64.10;;;;;;6155755;23;20017;-89
2023/07/24 01:55:58;;;;;;;11.55;4.60;;;23.60;63.90;;;;;;6131487;23;20056;-89
2023/07/24 01:58:26;;;;;;;14.15;4.65;;;23.60;63.90;;;;;;6136367;23;20080;-89
2023/07/24 02:04:22;;;;;;;11.20;4.72;;;23.50;64.40;;;;;;5902108;23;20097;-91
2023/07/24 02:06:50;;;;;;;11.27;4.65;;;23.40;64.90;;;;;;6107311;23;20025;-91
2023/07/24 02:09:18;;;;;;;11.45;5.10;;;23.40;65.20;;;;;;6131698;23;20013;-91
2023/07/24 02:11:45;;;;;;;9.75;5.05;;;23.30;65.40;;;;;;6106886;23;20100;-91
2023/07/24 02:14:14;;;;;;;9.17;4.23;;;23.30;65.60;;;;;;6107188;23;20072;-91
2023/07/24 02:16:44;;;;;;;9.25;4.40;;;23.30;65.30;;;;;;6107401;23;20022;-90
2023/07/24 02:19:11;;;;;;;9.15;4.22;;;23.20;65.30;;;;;;6106861;23;20053;-90
2023/07/24 02:21:40;;;;;;;8.65;3.70;;;23.10;65.40;;;;;;6131748;23;20014;-90
2023/07/24 02:24:07;;;;;;;7.88;3.67;;;23.10;65.70;;;;;;6106578;23;20025;-90
2023/07/24 02:26:34;;;;;;;8.23;3.83;;;23.10;65.20;;;;;;6107192;23;20018;-91
2023/07/24 02:29:02;;;;;;;8.32;3.95;;;23.10;65.40;;;;;;6107064;23;20045;-91
2023/07/24 02:31:29;;;;;;;7.28;3.55;;;23.00;65.50;;;;;;6131361;23;20021;-90
2023/07/24 02:33:56;;;;;;;8.80;3.53;;;23.00;65.80;;;;;;6107088;23;20025;-91
2023/07/24 02:36:23;;;;;;;10.75;3.83;;;22.90;65.80;;;;;;6131281;23;20025;-90
2023/07/24 02:38:50;;;;;;;9.97;3.70;;;23.00;65.90;;;;;;6106979;23;20109;-91
2023/07/24 02:41:17;;;;;;;8.27;4.47;;;22.90;66.10;;;;;;6131142;23;20025;-90
2023/07/24 02:43:44;;;;;;;7.68;4.05;;;22.90;66.20;;;;;;6106931;23;20021;-90
2023/07/24 02:46:11;;;;;;;11.07;4.88;;;22.90;66.30;;;;;;6131363;23;20347;-91
2023/07/24 02:48:38;;;;;;;10.05;3.85;;;22.80;66.40;;;;;;6106876;23;20017;-90
2023/07/24 02:51:05;;;;;;;8.40;3.90;;;22.80;66.50;;;;;;6107072;23;20399;-90
2023/07/24 02:53:32;;;;;;;9.60;4.15;;;22.80;66.70;;;;;;6106694;23;20096;-91
2023/07/24 02:56:02;;;;;;;9.02;4.53;;;22.70;66.70;;;;;;6107074;23;20103;-91
2023/07/24 02:58:29;;;;;;;9.38;4.22;;;22.70;66.90;;;;;;6106736;23;20031;-91
2023/07/24 03:01:06;;;;;;;11.35;4.07;;;22.70;67.20;;;;;;6106824;23;20022;-91
2023/07/24 03:03:34;;;;;;;9.67;4.17;;;22.70;66.80;;;;;;6101781;23;20103;-90
2023/07/24 03:06:02;;;;;;;10.27;4.30;;;22.70;67.10;;;;;;6102282;23;20049;-91
2023/07/24 03:08:29;;;;;;;10.80;4.30;;;22.60;67.20;;;;;;6102162;23;20045;-92
2023/07/24 03:10:56;;;;;;;8.68;3.95;;;22.60;67.00;;;;;;6102288;23;20072;-92
2023/07/24 03:13:23;;;;;;;8.63;4.10;;;22.60;66.80;;;;;;6101872;23;20021;-92
2023/07/24 03:15:57;;;;;;;9.57;4.10;;;22.60;66.80;;;;;;6102730;23;20507;-93
2023/07/24 03:18:25;;;;;;;10.85;3.88;;;22.60;66.90;;;;;;6102425;23;20021;-93
2023/07/24 03:20:52;;;;;;;9.45;4.10;;;22.50;66.70;;;;;;6102051;23;20028;-93
2023/07/24 03:23:20;;;;;;;8.73;3.70;;;22.50;67.00;;;;;;6102004;23;20507;-93
2023/07/24 03:25:47;;;;;;;9.75;4.03;;;22.50;67.10;;;;;;6102258;23;20073;-92
2023/07/24 03:28:14;;;;;;;12.47;4.07;;;22.40;67.20;;;;;;6102161;23;20041;-93
2023/07/24 03:30:41;;;;;;;9.38;3.97;;;22.40;67.30;;;;;;6102188;23;20022;-92
2023/07/24 03:33:08;;;;;;;8.25;3.78;;;22.40;67.60;;;;;;6102162;23;20046;-93
2023/07/24 03:35:35;;;;;;;10.88;4.47;;;22.40;67.70;;;;;;6102054;23;20025;-93
2023/07/24 03:38:03;;;;;;;8.73;4.03;;;22.30;67.90;;;;;;6102267;23;20053;-93
2023/07/24 03:40:30;;;;;;;9.13;4.00;;;22.40;67.70;;;;;;6102631;23;20360;-93
2023/07/24 03:42:57;;;;;;;8.98;4.30;;;22.40;67.50;;;;;;6101960;23;20033;-93
2023/07/24 03:45:24;;;;;;;8.93;4.18;;;22.40;67.60;;;;;;6102254;23;20025;-94
2023/07/24 03:47:51;;;;;;;9.68;4.00;;;22.30;67.60;;;;;;6102175;23;20013;-93
2023/07/24 03:50:18;;;;;;;7.53;3.45;;;22.30;67.90;;;;;;6102095;23;20025;-93
2023/07/24 03:52:45;;;;;;;7.97;3.37;;;22.20;68.20;;;;;;6101958;23;20021;-93
2023/07/24 03:55:12;;;;;;;9.48;3.70;;;22.20;68.00;;;;;;6102367;23;20048;-93
2023/07/24 03:57:40;;;;;;;12.00;4.03;;;22.30;68.10;;;;;;6126315;23;20112;-93
2023/07/24 04:00:07;;;;;;;10.18;3.60;;;22.30;68.20;;;;;;6101907;23;20100;-93
2023/07/24 04:02:40;;;;;;;9.27;3.92;;;22.30;68.30;;;;;;6126907;23;20030;-93
2023/07/24 04:05:07;;;;;;;12.80;3.97;;;22.20;68.60;;;;;;6126020;23;20058;-93
2023/07/24 04:07:34;;;;;;;7.97;3.70;;;22.20;68.80;;;;;;6102001;23;20018;-93
2023/07/24 04:10:01;;;;;;;10.68;4.90;;;22.30;68.50;;;;;;6102016;23;20014;-94
2023/07/24 04:12:29;;;;;;;8.85;4.35;;;22.30;68.60;;;;;;6102091;23;20064;-93
2023/07/24 04:14:56;;;;;;;13.18;5.32;;;22.40;68.40;;;;;;6102031;23;20014;-93
2023/07/24 04:17:23;;;;;;;9.43;4.33;;;22.50;68.40;;;;;;6101826;23;20029;-93
2023/07/24 04:19:50;;;;;;;9.13;4.40;;;22.50;68.40;;;;;;6102176;23;20351;-93
2023/07/24 04:22:17;;;;;;;10.10;4.30;;;22.50;68.60;;;;;;6101955;23;20026;-93
2023/07/24 04:24:45;;;;;;;9.60;4.32;;;22.50;68.40;;;;;;6102562;23;20022;-93
2023/07/24 04:27:12;;;;;;;10.93;4.63;;;22.50;68.70;;;;;;6104185;23;20108;-93
2023/07/24 04:29:39;;;;;;;8.80;4.00;;;22.50;68.90;;;;;;6103605;23;20018;-93
2023/07/24 04:32:06;;;;;;;9.77;4.20;;;22.40;69.20;;;;;;6103531;23;20197;-93
2023/07/24 04:34:33;;;;;;;9.10;4.60;;;22.40;69.00;;;;;;6103470;23;20475;-94
2023/07/24 04:37:00;;;;;;;9.65;4.57;;;22.40;69.20;;;;;;6103655;23;20453;-94
2023/07/24 04:39:27;;;;;;;9.43;4.10;;;22.50;69.30;;;;;;6103651;23;20136;-94
2023/07/24 04:41:54;;;;;;;9.60;4.73;;;22.50;69.20;;;;;;6103579;23;20082;-93
2023/07/24 04:44:21;;;;;;;8.30;3.97;;;22.50;69.30;;;;;;6103867;23;20026;-93
2023/07/24 04:46:48;;;;;;;9.02;4.25;;;22.60;69.30;;;;;;6103734;23;20032;-94
2023/07/24 04:49:15;;;;;;;8.80;4.22;;;22.60;69.00;;;;;;6103407;23;20028;-94
2023/07/24 04:51:42;;;;;;;9.95;4.80;;;22.60;69.30;;;;;;6103660;23;20392;-94
2023/07/24 04:54:09;;;;;;;8.57;4.30;;;22.60;69.40;;;;;;6103356;23;20024;-94
2023/07/24 04:56:36;;;;;;;8.27;4.15;;;22.70;69.10;;;;;;6103497;23;20022;-94
2023/07/24 04:59:04;;;;;;;9.20;4.38;;;22.80;69.00;;;;;;6103410;23;20025;-93
2023/07/24 05:01:31;;;;;;;10.93;4.60;;;22.80;68.90;;;;;;6103315;23;20022;-93
2023/07/24 05:03:58;;;;;;;11.00;5.30;;;23.00;69.20;;;;;;6103103;23;20029;-93
2023/07/24 05:06:25;;;;;;;10.23;4.63;;;23.00;68.90;;;;;;6103372;23;20440;-93
2023/07/24 05:08:53;;;;;;;9.77;4.57;;;23.10;68.60;;;;;;6103044;23;20396;-93
2023/07/24 05:11:20;;;;;;;10.35;4.82;;;23.20;69.20;;;;;;6103311;23;20026;-92
2023/07/24 05:13:47;;;;;;;9.75;5.03;;;23.30;68.30;;;;;;6103391;23;20025;-92
2023/07/24 05:16:14;;;;;;;9.68;4.57;;;23.50;68.30;;;;;;6103184;23;20022;-92
2023/07/24 05:18:41;;;;;;;9.63;4.57;;;23.60;68.00;;;;;;6103261;23;20025;-93
2023/07/24 05:21:08;;;;;;;9.07;5.10;;;23.80;67.90;;;;;;6103197;23;20029;-92
2023/07/24 05:23:35;;;;;;;9.70;4.78;;;23.80;67.70;;;;;;6103320;23;20025;-92
2023/07/24 05:26:03;;;;;;;10.52;4.88;;;24.00;67.60;;;;;;6103153;23;20022;-93
2023/07/24 05:28:31;;;;;;;10.07;4.72;;;24.10;67.60;;;;;;6103179;23;20444;-92
2023/07/24 05:31:03;;;;;;;9.53;3.93;;;24.20;67.00;;;;;;6103383;23;20348;-93
2023/07/24 05:33:31;;;;;;;8.63;3.70;;;24.40;66.70;;;;;;6127693;23;20085;-92
2023/07/24 05:35:59;;;;;;;9.88;4.45;;;24.60;66.50;;;;;;6103006;23;20033;-92
2023/07/24 05:38:26;;;;;;;8.27;3.90;;;24.60;66.10;;;;;;6102995;23;20082;-93
2023/07/24 05:41:02;;;;;;;9.25;3.80;;;24.70;65.80;;;;;;6102894;23;20030;-93
2023/07/24 05:43:30;;;;;;;9.13;3.77;;;24.80;66.00;;;;;;6102980;23;20021;-93
2023/07/24 05:45:58;;;;;;;12.55;4.35;;;24.90;65.90;;;;;;6103052;23;20025;-93
2023/07/24 05:48:25;;;;;;;7.70;3.90;;;25.10;65.00;;;;;;6102711;23;20014;-92
2023/07/24 05:50:52;;;;;;;11.32;4.22;;;25.20;64.90;;;;;;6102924;23;20077;-93
2023/07/24 05:53:19;;;;;;;7.72;3.70;;;25.30;65.10;;;;;;6103285;23;20105;-92
2023/07/24 05:55:46;;;;;;;9.40;4.00;;;25.30;65.10;;;;;;6103086;23;20018;-93
2023/07/24 05:58:14;;;;;;;12.32;4.55;;;25.30;64.70;;;;;;6102757;23;20523;-93
2023/07/24 06:00:41;;;;;;;10.63;4.78;;;25.40;64.80;;;;;;6127220;23;20025;-93
2023/07/24 06:03:08;;;;;;;15.02;6.00;;;25.40;65.10;;;;;;6106462;23;20042;-92
2023/07/24 06:05:35;;;;;;;12.80;5.50;;;25.40;63.70;;;;;;6131730;23;20021;-93
2023/07/24 06:08:02;;;;;;;14.33;5.70;;;25.60;64.50;;;;;;6107593;23;20108;-93
2023/07/24 06:10:29;;;;;;;13.43;5.50;;;25.70;64.50;;;;;;6131704;23;20028;-93
2023/07/24 06:12:57;;;;;;;12.95;5.68;;;25.90;64.10;;;;;;6107655;23;20017;-93
2023/07/24 06:15:24;;;;;;;14.27;5.57;;;26.00;63.20;;;;;;6107389;23;20029;-92
2023/07/24 06:17:51;;;;;;;13.15;4.97;;;26.10;62.60;;;;;;6131678;23;20056;-93
2023/07/24 06:20:20;;;;;;;11.63;5.37;;;26.30;62.30;;;;;;6108082;23;20439;-93
2023/07/24 06:22:47;;;;;;;9.52;4.63;;;26.40;61.40;;;;;;6107195;23;20018;-93
2023/07/24 06:25:15;;;;;;;8.88;4.13;;;26.50;61.80;;;;;;6107711;23;20021;-93
2023/07/24 06:27:42;;;;;;;8.75;4.25;;;26.50;61.80;;;;;;6107381;23;20013;-93
2023/07/24 06:30:09;;;;;;;12.00;4.30;;;26.50;62.10;;;;;;6131972;23;20348;-93
2023/07/24 06:32:43;;;;;;;9.90;4.33;;;26.60;62.90;;;;;;6108188;23;20017;-93
2023/07/24 06:35:10;;;;;;;9.98;5.07;;;26.60;62.30;;;;;;6108092;23;20435;-93
2023/07/24 06:37:37;;;;;;;12.00;5.50;;;26.60;61.30;;;;;;6107337;23;20056;-93
2023/07/24 06:40:06;;;;;;;10.25;4.60;;;26.80;60.40;;;;;;6107468;23;20096;-93
2023/07/24 06:42:33;;;;;;;12.65;5.03;;;26.90;56.20;;;;;;6132254;23;20021;-93
2023/07/24 06:45:00;;;;;;;15.70;6.30;;;27.00;55.80;;;;;;6132120;23;20100;-93
2023/07/24 06:47:27;;;;;;;17.23;5.78;;;27.10;56.40;;;;;;6107316;23;20051;-93
2023/07/24 06:49:54;;;;;;;14.13;5.97;;;27.40;57.10;;;;;;6107533;23;20053;-93
2023/07/24 06:52:21;;;;;;;16.08;5.55;;;27.60;56.10;;;;;;6107654;23;20104;-93
2023/07/24 06:54:49;;;;;;;11.32;4.65;;;27.70;54.60;;;;;;6107626;23;20025;-94
2023/07/24 06:57:16;;;;;;;12.27;4.60;;;27.80;53.60;;;;;;6107932;23;20395;-93
2023/07/24 06:59:43;;;;;;;11.70;4.18;;;27.80;52.20;;;;;;6108019;23;20018;-94
2023/07/24 07:02:10;;;;;;;11.05;4.18;;;27.80;47.90;;;;;;6107672;23;20053;-93
2023/07/24 07:04:37;;;;;;;12.15;4.43;;;27.90;50.30;;;;;;6102636;23;20440;-93
2023/07/24 07:07:04;;;;;;;9.73;4.38;;;27.80;49.30;;;;;;6102197;23;20022;-94
2023/07/24 07:09:31;;;;;;;10.70;4.40;;;27.70;48.70;;;;;;6103170;23;20092;-92
2023/07/24 07:11:58;;;;;;;10.88;4.60;;;27.80;50.20;;;;;;6102276;23;20049;-93
2023/07/24 07:14:25;;;;;;;13.45;4.82;;;28.10;49.10;;;;;;6102333;23;20074;-92
2023/07/24 07:16:52;;;;;;;10.65;4.57;;;28.10;48.30;;;;;;6102105;23;20061;-93
2023/07/24 07:19:20;;;;;;;9.55;4.07;;;28.00;47.90;;;;;;6102137;23;20073;-93
2023/07/24 07:21:47;;;;;;;9.43;3.67;;;27.90;47.60;;;;;;6102225;23;20057;-93
2023/07/24 07:24:14;;;;;;;12.30;4.30;;;27.70;48.00;;;;;;6101970;23;20026;-93
2023/07/24 07:26:41;;;;;;;11.55;4.55;;;27.60;48.10;;;;;;6102599;23;20026;-93
2023/07/24 07:29:09;;;;;;;12.50;4.63;;;27.40;49.10;;;;;;6102385;23;20028;-94
2023/07/24 07:31:37;;;;;;;13.05;4.25;;;27.30;50.70;;;;;;6102770;23;20515;-93
2023/07/24 07:34:04;;;;;;;13.20;4.27;;;27.30;49.90;;;;;;6102181;23;20018;-94
2023/07/24 07:36:31;;;;;;;16.80;4.80;;;27.10;48.50;;;;;;6126204;23;20408;-93
2023/07/24 07:38:58;;;;;;;14.82;5.00;;;27.10;48.60;;;;;;6126444;23;20380;-93
2023/07/24 07:41:25;;;;;;;10.35;4.03;;;27.10;48.90;;;;;;6102221;23;20050;-93
2023/07/24 07:43:52;;;;;;;9.82;4.30;;;27.10;49.00;;;;;;6102349;23;20025;-94
2023/07/24 07:46:20;;;;;;;13.57;4.47;;;27.00;46.70;;;;;;6102138;23;20022;-93
2023/07/24 07:48:48;;;;;;;11.05;4.15;;;27.00;45.90;;;;;;6102012;23;20022;-93
2023/07/24 07:51:16;;;;;;;11.63;4.47;;;26.90;46.70;;;;;;6102209;23;20026;-93
2023/07/24 07:53:42;;;;;;;12.65;4.55;;;27.00;47.20;;;;;;6102071;23;20018;-93
2023/07/24 07:56:10;;;;;;;10.68;4.45;;;27.10;47.60;;;;;;6102330;23;20452;-94
2023/07/24 07:58:37;;;;;;;11.13;4.23;;;27.20;48.20;;;;;;6102434;23;20032;-93
2023/07/24 08:01:05;;;;;;;10.00;4.40;;;27.40;47.20;;;;;;6104302;23;20022;-93
2023/07/24 08:03:33;;;;;;;12.60;4.72;;;27.60;48.40;;;;;;6103696;23;20036;-93
2023/07/24 08:06:00;;;;;;;14.55;4.55;;;27.70;45.80;;;;;;6104208;23;20401;-93
2023/07/24 08:08:27;;;;;;;9.70;4.22;;;27.90;45.80;;;;;;6103737;23;20385;-92
2023/07/24 08:10:54;;;;;;;12.63;4.40;;;27.80;45.00;;;;;;6104053;23;20018;-92
2023/07/24 08:13:21;;;;;;;10.95;4.28;;;27.80;45.50;;;;;;6103715;23;20022;-93
2023/07/24 08:15:49;;;;;;;14.20;4.40;;;27.60;43.80;;;;;;6103707;23;20024;-93
2023/07/24 08:18:16;;;;;;;8.70;4.13;;;27.60;44.50;;;;;;6103738;23;20540;-94
2023/07/24 08:20:43;;;;;;;10.23;4.60;;;27.60;45.00;;;;;;6104042;23;20049;-93
2023/07/24 08:23:10;;;;;;;9.47;3.93;;;27.60;44.40;;;;;;6103700;23;20448;-93
2023/07/24 08:25:37;;;;;;;10.10;4.57;;;27.50;45.70;;;;;;6103719;23;20057;-93
2023/07/24 08:28:04;;;;;;;11.20;4.60;;;27.60;44.40;;;;;;6103796;23;20041;-93
2023/07/24 08:30:34;;;;;;;11.30;4.78;;;27.90;46.80;;;;;;6103743;23;20018;-94
2023/07/24 08:33:01;;;;;;;9.68;4.68;;;28.20;45.40;;;;;;6103820;23;20563;-93
2023/07/24 08:35:29;;;;;;;10.67;4.87;;;28.30;42.40;;;;;;6103910;23;20018;-94
2023/07/24 08:37:56;;;;;;;13.95;5.10;;;28.60;43.20;;;;;;6103466;23;20448;-93
2023/07/24 08:40:23;;;;;;;11.52;5.00;;;28.70;43.30;;;;;;6104140;23;20032;-93
2023/07/24 08:42:51;;;;;;;10.15;4.60;;;29.00;43.00;;;;;;6103467;23;20487;-93
2023/07/24 08:45:19;;;;;;;10.70;5.63;;;29.20;41.00;;;;;;6103598;23;20511;-93
2023/07/24 08:47:47;;;;;;;12.00;4.93;;;29.40;43.50;;;;;;6103616;23;20363;-93
2023/07/24 08:50:15;;;;;;;12.18;5.38;;;29.50;43.70;;;;;;6103922;23;20026;-92
2023/07/24 08:52:44;;;;;;;11.00;5.13;;;29.50;40.50;;;;;;6103548;23;20448;-93
2023/07/24 08:55:12;;;;;;;12.65;5.20;;;29.50;40.80;;;;;;6103392;23;20053;-93
2023/07/24 08:57:39;;;;;;;10.95;5.00;;;29.50;40.60;;;;;;6103390;23;20408;-93
2023/07/24 09:00:07;;;;;;;12.77;5.30;;;29.50;39.90;;;;;;6103374;23;20025;-93
2023/07/24 09:02:35;;;;;;;13.98;5.07;;;29.30;42.90;;;;;;6103413;23;20029;-94
2023/07/24 09:05:04;;;;;;;12.27;5.20;;;29.40;45.30;;;;;;6107677;23;20035;-93
2023/07/24 09:07:32;;;;;;;13.57;4.93;;;29.60;43.10;;;;;;6108052;23;20100;-93
2023/07/24 09:09:59;;;;;;;10.65;5.00;;;29.60;41.70;;;;;;6131899;23;20443;-93
2023/07/24 09:12:26;;;;;;;12.43;4.87;;;29.40;39.70;;;;;;6108325;23;20018;-93
2023/07/24 09:15:06;;;;;;;11.73;5.40;;;29.20;40.40;;;;;;6108374;23;20117;-93
2023/07/24 09:17:34;;;;;;;23.40;5.72;;;29.00;42.50;;;;;;6108285;23;20100;-93
2023/07/24 09:20:03;;;;;;;12.48;4.85;;;28.90;41.20;;;;;;6108056;23;20028;-94
2023/07/24 09:22:31;;;;;;;11.65;5.00;;;28.90;41.80;;;;;;6132721;23;20329;-93
2023/07/24 09:25:03;;;;;;;14.87;5.57;;;28.80;40.70;;;;;;6108334;23;20032;-94
2023/07/24 09:27:30;;;;;;;12.05;4.15;;;28.70;40.70;;;;;;6132893;23;20022;-93
2023/07/24 09:29:59;;;;;;;10.60;4.90;;;28.60;41.20;;;;;;6108387;23;20347;-94
2023/07/24 09:32:27;;;;;;;11.57;5.47;;;28.60;40.90;;;;;;6132227;23;20455;-93
2023/07/24 09:34:54;;;;;;;14.23;5.07;;;28.40;41.40;;;;;;6107945;23;20017;-93
2023/07/24 09:37:33;;;;;;;15.37;5.40;;;28.40;41.20;;;;;;6108345;23;20457;-93
2023/07/24 09:40:03;;;;;;;11.40;5.00;;;28.50;41.90;;;;;;6108001;23;20364;-94
2023/07/24 09:42:32;;;;;;;10.85;4.93;;;28.70;41.30;;;;;;6132082;23;20021;-94
2023/07/24 09:45:00;;;;;;;12.75;5.50;;;28.80;41.50;;;;;;6131929;23;20024;-93
2023/07/24 09:47:28;;;;;;;10.93;5.18;;;29.00;41.90;;;;;;6132053;23;20360;-93
2023/07/24 09:50:15;;;;;;;11.20;4.93;;;29.30;41.70;;;;;;6111933;23;20017;-93
2023/07/24 09:52:44;;;;;;;12.30;5.80;;;29.80;40.80;;;;;;6132083;23;20025;-93
2023/07/24 09:55:24;;;;;;;13.40;6.40;;;29.90;40.20;;;;;;6132123;23;20025;-93
2023/07/24 09:57:54;;;;;;;14.20;5.68;;;29.90;40.70;;;;;;6107696;23;20350;-93
2023/07/24 10:00:21;;;;;;;11.15;5.18;;;29.80;40.60;;;;;;6107531;23;20385;-93
2023/07/24 10:02:49;;;;;;;12.47;5.73;;;29.90;39.90;;;;;;6107573;23;20017;-94
2023/07/24 10:05:17;;;;;;;14.70;5.40;;;30.10;41.90;;;;;;6102710;23;20033;-93
2023/07/24 10:07:45;;;;;;;14.55;6.20;;;30.30;40.00;;;;;;6102516;23;20060;-93
2023/07/24 10:10:13;;;;;;;13.23;5.72;;;30.30;40.00;;;;;;6102503;23;20020;-93
2023/07/24 10:12:41;;;;;;;14.23;6.10;;;30.30;39.80;;;;;;6102560;23;20052;-93
2023/07/24 10:15:08;;;;;;;13.03;5.63;;;30.20;39.50;;;;;;6102667;23;20025;-94
2023/07/24 10:17:36;;;;;;;14.43;6.30;;;30.10;40.00;;;;;;6102389;23;20022;-93
2023/07/24 10:20:08;;;;;;;12.77;6.00;;;30.10;39.00;;;;;;6102718;23;20022;-94
2023/07/24 10:22:41;;;;;;;12.57;5.80;;;30.10;39.00;;;;;;6102782;23;20017;-93
2023/07/24 10:25:09;;;;;;;14.52;6.10;;;30.10;39.80;;;;;;6102558;23;20018;-93
2023/07/24 10:27:44;;;;;;;13.63;5.60;;;30.20;39.70;;;;;;6102601;23;20028;-93
2023/07/24 10:30:11;;;;;;;12.88;5.55;;;30.50;38.50;;;;;;6102849;23;20024;-93
2023/07/24 10:33:18;;;;;;;12.93;5.60;;;30.90;40.00;;;;;;6106269;23;20025;-93
2023/07/24 10:35:49;;;;;;;12.77;5.82;;;31.10;40.60;;;;;;6102460;23;20014;-93
2023/07/24 10:38:17;;;;;;;12.73;5.82;;;31.00;40.30;;;;;;6102448;23;20024;-94
2023/07/24 10:40:51;;;;;;;14.17;5.30;;;30.90;41.00;;;;;;6102206;23;20029;-93
2023/07/24 10:43:20;;;;;;;13.57;6.45;;;30.70;39.20;;;;;;6102323;23;20092;-93
2023/07/24 10:45:48;;;;;;;11.00;5.85;;;30.60;41.00;;;;;;6102986;23;20037;-96
2023/07/24 10:48:17;;;;;;;13.93;5.72;;;30.60;41.00;;;;;;6102683;23;20022;-96
2023/07/24 10:50:49;;;;;;;13.90;6.10;;;30.50;39.20;;;;;;6127400;23;20108;-95
2023/07/24 10:53:22;;;;;;;12.13;5.97;;;30.40;39.90;;;;;;6105306;23;20009;-94
2023/07/24 10:55:51;;;;;;;12.00;5.82;;;30.30;39.70;;;;;;6104410;23;20410;-95
2023/07/24 10:58:19;;;;;;;16.70;6.63;;;30.30;39.90;;;;;;6103894;23;20066;-95
2023/07/24 11:00:47;;;;;;;12.75;5.80;;;30.40;42.10;;;;;;6103515;23;20048;-96
2023/07/24 11:03:15;;;;;;;14.65;6.40;;;30.40;44.50;;;;;;6104224;23;20053;-94
2023/07/24 11:05:44;;;;;;;12.00;6.03;;;30.30;43.30;;;;;;6131453;23;20023;-93
2023/07/24 11:08:19;;;;;;;12.35;6.25;;;30.20;43.10;;;;;;6131532;23;20088;-95
2023/07/24 11:10:50;;;;;;;14.10;5.90;;;30.10;43.40;;;;;;6107429;23;20010;-91
2023/07/24 11:13:20;;;;;;;22.63;6.13;;;30.10;43.30;;;;;;6108227;23;20088;-96
2023/07/24 11:15:49;;;;;;;12.75;6.43;;;30.00;44.30;;;;;;6107619;23;20025;-93
2023/07/24 11:18:16;;;;;;;16.60;6.43;;;30.00;44.70;;;;;;6107225;23;20020;-95
2023/07/24 11:20:54;;;;;;;16.55;6.20;;;30.10;46.10;;;;;;6132335;23;20032;-94
2023/07/24 11:23:25;;;;;;;12.27;5.72;;;30.10;47.20;;;;;;6132137;23;20087;-95
2023/07/24 11:26:05;;;;;;;13.30;5.72;;;30.10;47.30;;;;;;6109803;23;20027;-96
2023/07/24 11:28:40;;;;;;;15.40;6.32;;;30.00;46.30;;;;;;6131892;23;20388;-94
2023/07/24 11:31:08;;;;;;;15.40;6.33;;;29.80;47.00;;;;;;6107499;23;20017;-95
2023/07/24 11:33:35;;;;;;;21.25;7.30;;;29.60;47.50;;;;;;6107343;23;20391;-95
2023/07/24 11:36:03;;;;;;;15.10;6.43;;;29.50;47.90;;;;;;6107157;23;20014;-93
2023/07/24 11:38:30;;;;;;;14.25;6.20;;;29.50;47.90;;;;;;6131398;23;20081;-93
2023/07/24 11:41:04;;;;;;;14.95;5.90;;;29.30;48.10;;;;;;6132315;23;20025;-96
2023/07/24 11:43:46;;;;;;;19.10;5.90;;;29.30;47.90;;;;;;6133671;23;20021;-95
2023/07/24 11:46:26;;;;;;;10.13;5.38;;;29.20;48.20;;;;;;6107199;23;20021;-94
2023/07/24 11:48:56;;;;;;;10.75;5.47;;;29.30;47.20;;;;;;6107141;23;20337;-92
2023/07/24 11:51:26;;;;;;;12.38;5.90;;;29.30;47.70;;;;;;6131188;23;20055;-94
2023/07/24 11:54:07;;;;;;;13.50;6.25;;;29.40;49.20;;;;;;6107268;23;20018;-94
2023/07/24 11:56:34;;;;;;;11.07;5.93;;;29.50;47.20;;;;;;6107030;23;20020;-94
2023/07/24 11:59:14;;;;;;;12.27;5.75;;;29.60;47.30;;;;;;6106908;23;20448;-93
2023/07/24 12:01:47;;;;;;;12.88;6.38;;;29.90;47.00;;;;;;6107174;23;20399;-94
2023/07/24 12:04:16;;;;;;;14.43;6.65;;;30.10;46.20;;;;;;6126144;23;20108;-94
2023/07/24 12:06:43;;;;;;;22.45;6.30;;;30.20;47.70;;;;;;6102055;23;20022;-92
2023/07/24 12:09:11;;;;;;;14.33;6.67;;;30.30;46.00;;;;;;6102164;23;20100;-92
2023/07/24 12:11:43;;;;;;;21.20;6.90;;;30.40;44.30;;;;;;6101682;23;20021;-94
2023/07/24 12:14:14;;;;;;;19.85;6.78;;;30.30;43.50;;;;;;6126797;23;20010;-95
2023/07/24 12:16:42;;;;;;;15.10;6.35;;;30.40;45.80;;;;;;6101709;23;20100;-91
2023/07/24 12:19:09;;;;;;;17.50;6.40;;;30.70;44.00;;;;;;6101408;23;20325;-91
2023/07/24 12:21:36;;;;;;;15.80;6.70;;;31.00;44.10;;;;;;6101411;23;20026;-91
2023/07/24 12:24:03;;;;;;;12.23;6.20;;;31.20;45.50;;;;;;6125585;23;20025;-91
2023/07/24 12:26:30;;;;;;;13.57;6.15;;;31.50;45.60;;;;;;6101232;23;20027;-89
2023/07/24 12:29:00;;;;;;;14.23;6.50;;;31.70;42.00;;;;;;6101127;23;20026;-89
2023/07/24 12:31:27;;;;;;;14.68;6.20;;;31.60;43.10;;;;;;6126429;23;20014;-89
2023/07/24 12:33:56;;;;;;;14.13;6.40;;;31.50;42.00;;;;;;6101071;23;20334;-90
2023/07/24 12:36:23;;;;;;;15.85;6.75;;;31.40;40.70;;;;;;6101839;23;20029;-89
2023/07/24 12:38:50;;;;;;;15.77;6.50;;;31.50;42.50;;;;;;6101221;23;20029;-89
2023/07/24 12:41:17;;;;;;;14.07;6.40;;;31.70;42.50;;;;;;6101108;23;20048;-90
2023/07/24 12:43:44;;;;;;;16.98;6.40;;;31.70;40.80;;;;;;6101299;23;20077;-90
2023/07/24 12:46:11;;;;;;;15.87;6.30;;;31.70;42.60;;;;;;6101911;23;20117;-90
2023/07/24 12:48:38;;;;;;;14.55;6.28;;;31.30;40.30;;;;;;6102937;23;20393;-90
2023/07/24 12:51:06;;;;;;;16.25;6.90;;;31.20;42.00;;;;;;6102619;23;20042;-90